sensor_id;sensor_type;location;lat;lon;timestamp;temperature;humidity
8953;DHT22;4511;50.890;8.054;2023-12-14T00:01:55;5.70;99.90
8953;DHT22;4511;50.890;8.054;2023-12-14T00:04:22;5.70;99.90
8953;DHT22;4511;50.890;8.054;2023-12-14T00:06:49;5.70;99.90
8953;DHT22;4511;50.890;8.054;2023-12-14T00:09:17;5.80;99.90
8953;DHT22;4511;50.890;8.054;2023-12-14T00:11:43;5.80;99.90
8953;DHT22;4511;50.890;8.054;2023-12-14T00:14:10;5.80;99.90
8953;DHT22;4511;50.890;8.054;2023-12-14T00:16:37;5.80;99.90
8953;DHT22;4511;50.890;8.054;2023-12-14T00:19:04;5.80;99.90
8953;DHT22;4511;50.890;8.054;2023-12-14T00:21:31;5.80;99.90
8953;DHT22;4511;50.890;8.054;2023-12-14T00:23:58;5.80;99.90
8953;DHT22;4511;50.890;8.054;2023-12-14T00:26:27;5.90;99.90
8953;DHT22;4511;50.890;8.054;2023-12-14T00:28:53;5.90;99.90
8953;DHT22;4511;50.890;8.054;2023-12-14T00:31:20;5.90;99.90
8953;DHT22;4511;50.890;8.054;2023-12-14T00:33:47;5.90;99.90
8953;DHT22;4511;50.890;8.054;2023-12-14T00:36:18;5.90;99.90
8953;DHT22;4511;50.890;8.054;2023-12-14T00:38:45;5.90;99.90
8953;DHT22;4511;50.890;8.054;2023-12-14T00:41:11;5.90;99.90
8953;DHT22;4511;50.890;8.054;2023-12-14T00:43:40;5.90;99.90
8953;DHT22;4511;50.890;8.054;2023-12-14T00:46:07;5.90;99.90
8953;DHT22;4511;50.890;8.054;2023-12-14T00:48:34;5.90;99.90
8953;DHT22;4511;50.890;8.054;2023-12-14T00:51:01;5.90;99.90
8953;DHT22;4511;50.890;8.054;2023-12-14T00:53:28;6.00;99.90
8953;DHT22;4511;50.890;8.054;2023-12-14T00:55:55;5.90;99.90
8953;DHT22;4511;50.890;8.054;2023-12-14T00:58:21;5.90;99.90
8953;DHT22;4511;50.890;8.054;2023-12-14T01:00:49;5.80;99.90
8953;DHT22;4511;50.890;8.054;2023-12-14T01:03:16;5.80;99.90
8953;DHT22;4511;50.890;8.054;2023-12-14T01:05:43;5.80;99.90
8953;DHT22;4511;50.890;8.054;2023-12-14T01:08:09;5.70;99.90
8953;DHT22;4511;50.890;8.054;2023-12-14T01:10:36;5.70;99.90
8953;DHT22;4511;50.890;8.054;2023-12-14T01:13:03;5.80;99.90
8953;DHT22;4511;50.890;8.054;2023-12-14T01:15:30;5.70;99.90
8953;DHT22;4511;50.890;8.054;2023-12-14T01:17:58;5.80;99.90
8953;DHT22;4511;50.890;8.054;2023-12-14T01:20:24;5.80;99.90
8953;DHT22;4511;50.890;8.054;2023-12-14T01:22:51;5.80;99.90
8953;DHT22;4511;50.890;8.054;2023-12-14T01:25:18;5.80;99.90
8953;DHT22;4511;50.890;8.054;2023-12-14T01:27:45;5.80;99.90
8953;DHT22;4511;50.890;8.054;2023-12-14T01:30:12;5.80;99.90
8953;DHT22;4511;50.890;8.054;2023-12-14T01:32:39;5.70;99.90
8953;DHT22;4511;50.890;8.054;2023-12-14T01:35:07;5.80;99.90
8953;DHT22;4511;50.890;8.054;2023-12-14T01:37:34;5.80;99.90
8953;DHT22;4511;50.890;8.054;2023-12-14T01:40:01;5.90;99.90
8953;DHT22;4511;50.890;8.054;2023-12-14T01:42:28;5.90;99.90
8953;DHT22;4511;50.890;8.054;2023-12-14T01:44:55;5.90;99.90
8953;DHT22;4511;50.890;8.054;2023-12-14T01:47:21;5.90;99.90
8953;DHT22;4511;50.890;8.054;2023-12-14T01:49:49;5.90;99.90
8953;DHT22;4511;50.890;8.054;2023-12-14T01:52:17;5.90;99.90
8953;DHT22;4511;50.890;8.054;2023-12-14T01:54:44;5.90;99.90
8953;DHT22;4511;50.890;8.054;2023-12-14T01:57:10;5.90;99.90
8953;DHT22;4511;50.890;8.054;2023-12-14T01:59:37;6.00;99.90
8953;DHT22;4511;50.890;8.054;2023-12-14T02:02:04;6.00;99.90
8953;DHT22;4511;50.890;8.054;2023-12-14T02:04:31;6.00;99.90
8953;DHT22;4511;50.890;8.054;2023-12-14T02:06:58;5.90;99.90
8953;DHT22;4511;50.890;8.054;2023-12-14T02:09:26;5.90;99.90
8953;DHT22;4511;50.890;8.054;2023-12-14T02:11:53;5.90;99.90
8953;DHT22;4511;50.890;8.054;2023-12-14T02:14:21;5.90;99.90
8953;DHT22;4511;50.890;8.054;2023-12-14T02:16:48;6.00;99.90
8953;DHT22;4511;50.890;8.054;2023-12-14T02:19:15;6.00;99.90
8953;DHT22;4511;50.890;8.054;2023-12-14T02:21:42;6.10;99.90
8953;DHT22;4511;50.890;8.054;2023-12-14T02:24:10;6.10;99.90
8953;DHT22;4511;50.890;8.054;2023-12-14T02:26:37;6.10;99.90
8953;DHT22;4511;50.890;8.054;2023-12-14T02:29:04;6.10;99.90
8953;DHT22;4511;50.890;8.054;2023-12-14T02:31:30;6.20;99.90
8953;DHT22;4511;50.890;8.054;2023-12-14T02:33:57;6.20;99.90
8953;DHT22;4511;50.890;8.054;2023-12-14T02:36:24;6.10;99.90
8953;DHT22;4511;50.890;8.054;2023-12-14T02:38:51;6.10;99.90
8953;DHT22;4511;50.890;8.054;2023-12-14T02:41:19;6.10;99.90
8953;DHT22;4511;50.890;8.054;2023-12-14T02:43:45;6.10;99.90
8953;DHT22;4511;50.890;8.054;2023-12-14T02:46:12;6.10;99.90
8953;DHT22;4511;50.890;8.054;2023-12-14T02:48:41;6.10;99.90
8953;DHT22;4511;50.890;8.054;2023-12-14T02:51:12;6.10;99.90
8953;DHT22;4511;50.890;8.054;2023-12-14T02:53:39;6.20;99.90
8953;DHT22;4511;50.890;8.054;2023-12-14T02:56:08;6.20;99.90
8953;DHT22;4511;50.890;8.054;2023-12-14T02:58:36;6.20;99.90
8953;DHT22;4511;50.890;8.054;2023-12-14T03:01:03;6.20;99.90
8953;DHT22;4511;50.890;8.054;2023-12-14T03:03:30;6.20;99.90
8953;DHT22;4511;50.890;8.054;2023-12-14T03:05:57;6.20;99.90
8953;DHT22;4511;50.890;8.054;2023-12-14T03:08:24;6.20;99.90
8953;DHT22;4511;50.890;8.054;2023-12-14T03:10:50;6.20;99.90
8953;DHT22;4511;50.890;8.054;2023-12-14T03:13:17;6.20;99.90
8953;DHT22;4511;50.890;8.054;2023-12-14T03:15:45;6.20;99.90
8953;DHT22;4511;50.890;8.054;2023-12-14T03:18:14;6.20;99.90
8953;DHT22;4511;50.890;8.054;2023-12-14T03:20:41;6.20;99.90
8953;DHT22;4511;50.890;8.054;2023-12-14T03:23:08;6.30;99.90
8953;DHT22;4511;50.890;8.054;2023-12-14T03:25:34;6.20;99.90
8953;DHT22;4511;50.890;8.054;2023-12-14T03:28:01;6.20;99.90
8953;DHT22;4511;50.890;8.054;2023-12-14T03:30:28;6.30;99.90
8953;DHT22;4511;50.890;8.054;2023-12-14T03:32:56;6.30;99.90
8953;DHT22;4511;50.890;8.054;2023-12-14T03:35:23;6.20;99.90
8953;DHT22;4511;50.890;8.054;2023-12-14T03:37:49;6.30;99.90
8953;DHT22;4511;50.890;8.054;2023-12-14T03:40:16;6.30;99.90
8953;DHT22;4511;50.890;8.054;2023-12-14T03:42:44;6.20;99.90
8953;DHT22;4511;50.890;8.054;2023-12-14T03:45:11;6.30;99.90
8953;DHT22;4511;50.890;8.054;2023-12-14T03:47:38;6.30;99.90
8953;DHT22;4511;50.890;8.054;2023-12-14T03:50:10;6.30;99.90
8953;DHT22;4511;50.890;8.054;2023-12-14T03:52:37;6.30;99.90
8953;DHT22;4511;50.890;8.054;2023-12-14T03:55:04;6.30;99.90
8953;DHT22;4511;50.890;8.054;2023-12-14T03:57:31;6.30;99.90
8953;DHT22;4511;50.890;8.054;2023-12-14T03:59:58;6.30;99.90
8953;DHT22;4511;50.890;8.054;2023-12-14T04:02:24;6.30;99.90
8953;DHT22;4511;50.890;8.054;2023-12-14T04:04:51;6.30;99.90
8953;DHT22;4511;50.890;8.054;2023-12-14T04:07:19;6.30;99.90
8953;DHT22;4511;50.890;8.054;2023-12-14T04:09:47;6.30;99.90
8953;DHT22;4511;50.890;8.054;2023-12-14T04:12:14;6.30;99.90
8953;DHT22;4511;50.890;8.054;2023-12-14T04:14:40;6.30;99.90
8953;DHT22;4511;50.890;8.054;2023-12-14T04:17:07;6.40;99.90
8953;DHT22;4511;50.890;8.054;2023-12-14T04:19:34;6.40;99.90
8953;DHT22;4511;50.890;8.054;2023-12-14T04:22:01;6.20;99.90
8953;DHT22;4511;50.890;8.054;2023-12-14T04:24:29;6.30;99.90
8953;DHT22;4511;50.890;8.054;2023-12-14T04:26:56;6.20;99.90
8953;DHT22;4511;50.890;8.054;2023-12-14T04:29:22;6.30;99.90
8953;DHT22;4511;50.890;8.054;2023-12-14T04:31:49;6.20;99.90
8953;DHT22;4511;50.890;8.054;2023-12-14T04:34:16;6.30;99.90
8953;DHT22;4511;50.890;8.054;2023-12-14T04:36:45;6.30;99.90
8953;DHT22;4511;50.890;8.054;2023-12-14T04:39:12;6.20;99.90
8953;DHT22;4511;50.890;8.054;2023-12-14T04:41:40;6.30;99.90
8953;DHT22;4511;50.890;8.054;2023-12-14T04:44:06;6.30;99.90
8953;DHT22;4511;50.890;8.054;2023-12-14T04:46:35;6.30;99.90
8953;DHT22;4511;50.890;8.054;2023-12-14T04:49:02;6.30;99.90
8953;DHT22;4511;50.890;8.054;2023-12-14T04:51:29;6.40;99.90
8953;DHT22;4511;50.890;8.054;2023-12-14T04:53:57;6.40;99.90
8953;DHT22;4511;50.890;8.054;2023-12-14T04:56:24;6.40;99.90
8953;DHT22;4511;50.890;8.054;2023-12-14T04:58:52;6.40;99.90
8953;DHT22;4511;50.890;8.054;2023-12-14T05:01:18;6.40;99.90
8953;DHT22;4511;50.890;8.054;2023-12-14T05:03:45;6.40;99.90
8953;DHT22;4511;50.890;8.054;2023-12-14T05:06:12;6.40;99.90
8953;DHT22;4511;50.890;8.054;2023-12-14T05:08:39;6.40;99.90
8953;DHT22;4511;50.890;8.054;2023-12-14T05:11:05;6.40;99.90
8953;DHT22;4511;50.890;8.054;2023-12-14T05:13:32;6.40;99.90
8953;DHT22;4511;50.890;8.054;2023-12-14T05:16:00;6.40;99.90
8953;DHT22;4511;50.890;8.054;2023-12-14T05:18:27;6.50;99.90
8953;DHT22;4511;50.890;8.054;2023-12-14T05:20:54;6.50;99.90
8953;DHT22;4511;50.890;8.054;2023-12-14T05:23:21;6.50;99.90
8953;DHT22;4511;50.890;8.054;2023-12-14T05:25:49;6.50;99.90
8953;DHT22;4511;50.890;8.054;2023-12-14T05:28:16;6.50;99.90
8953;DHT22;4511;50.890;8.054;2023-12-14T05:30:42;6.50;99.90
8953;DHT22;4511;50.890;8.054;2023-12-14T05:33:10;6.50;99.90
8953;DHT22;4511;50.890;8.054;2023-12-14T05:35:37;6.50;99.90
8953;DHT22;4511;50.890;8.054;2023-12-14T05:38:04;6.50;99.90
8953;DHT22;4511;50.890;8.054;2023-12-14T05:40:31;6.50;99.90
8953;DHT22;4511;50.890;8.054;2023-12-14T05:42:57;6.50;99.90
8953;DHT22;4511;50.890;8.054;2023-12-14T05:45:24;6.50;99.90
8953;DHT22;4511;50.890;8.054;2023-12-14T05:47:51;6.50;99.90
8953;DHT22;4511;50.890;8.054;2023-12-14T05:50:19;6.60;99.90
8953;DHT22;4511;50.890;8.054;2023-12-14T05:52:47;6.60;99.90
8953;DHT22;4511;50.890;8.054;2023-12-14T05:55:14;6.60;99.90
8953;DHT22;4511;50.890;8.054;2023-12-14T05:57:45;6.60;99.90
8953;DHT22;4511;50.890;8.054;2023-12-14T06:00:13;6.60;99.90
8953;DHT22;4511;50.890;8.054;2023-12-14T06:02:40;6.60;99.90
8953;DHT22;4511;50.890;8.054;2023-12-14T06:05:08;6.50;99.90
8953;DHT22;4511;50.890;8.054;2023-12-14T06:07:36;6.50;99.90
8953;DHT22;4511;50.890;8.054;2023-12-14T06:10:03;6.90;99.90
8953;DHT22;4511;50.890;8.054;2023-12-14T06:12:30;6.70;99.90
8953;DHT22;4511;50.890;8.054;2023-12-14T06:14:57;6.70;99.90
8953;DHT22;4511;50.890;8.054;2023-12-14T06:17:24;6.60;99.90
8953;DHT22;4511;50.890;8.054;2023-12-14T06:19:50;6.60;99.90
8953;DHT22;4511;50.890;8.054;2023-12-14T06:22:17;6.60;99.90
8953;DHT22;4511;50.890;8.054;2023-12-14T06:24:45;6.60;99.90
8953;DHT22;4511;50.890;8.054;2023-12-14T06:27:12;6.50;99.90
8953;DHT22;4511;50.890;8.054;2023-12-14T06:29:39;6.50;99.90
8953;DHT22;4511;50.890;8.054;2023-12-14T06:32:06;6.50;99.90
8953;DHT22;4511;50.890;8.054;2023-12-14T06:34:33;6.50;99.90
8953;DHT22;4511;50.890;8.054;2023-12-14T06:36:59;6.50;99.90
8953;DHT22;4511;50.890;8.054;2023-12-14T06:39:28;6.50;99.90
8953;DHT22;4511;50.890;8.054;2023-12-14T06:41:56;6.50;99.90
8953;DHT22;4511;50.890;8.054;2023-12-14T06:44:23;6.50;99.90
8953;DHT22;4511;50.890;8.054;2023-12-14T06:46:51;6.50;99.90
8953;DHT22;4511;50.890;8.054;2023-12-14T06:49:18;6.50;99.90
8953;DHT22;4511;50.890;8.054;2023-12-14T06:51:45;6.50;99.90
8953;DHT22;4511;50.890;8.054;2023-12-14T06:54:12;6.50;99.90
8953;DHT22;4511;50.890;8.054;2023-12-14T06:56:38;6.50;99.90
8953;DHT22;4511;50.890;8.054;2023-12-14T06:59:06;6.50;99.90
8953;DHT22;4511;50.890;8.054;2023-12-14T07:01:34;6.50;99.90
8953;DHT22;4511;50.890;8.054;2023-12-14T07:04:01;6.50;99.90
8953;DHT22;4511;50.890;8.054;2023-12-14T07:06:28;6.50;99.90
8953;DHT22;4511;50.890;8.054;2023-12-14T07:08:55;6.50;99.90
8953;DHT22;4511;50.890;8.054;2023-12-14T07:11:22;6.50;99.90
8953;DHT22;4511;50.890;8.054;2023-12-14T07:13:49;6.50;99.90
8953;DHT22;4511;50.890;8.054;2023-12-14T07:16:17;6.50;99.90
8953;DHT22;4511;50.890;8.054;2023-12-14T07:18:44;6.50;99.90
8953;DHT22;4511;50.890;8.054;2023-12-14T07:21:10;6.50;99.90
8953;DHT22;4511;50.890;8.054;2023-12-14T07:23:37;6.40;99.90
8953;DHT22;4511;50.890;8.054;2023-12-14T07:26:04;6.40;99.90
8953;DHT22;4511;50.890;8.054;2023-12-14T07:28:31;6.50;99.90
8953;DHT22;4511;50.890;8.054;2023-12-14T07:30:58;6.40;99.90
8953;DHT22;4511;50.890;8.054;2023-12-14T07:33:26;6.40;99.90
8953;DHT22;4511;50.890;8.054;2023-12-14T07:35:53;6.50;99.90
8953;DHT22;4511;50.890;8.054;2023-12-14T07:38:20;6.50;99.90
8953;DHT22;4511;50.890;8.054;2023-12-14T07:40:46;6.50;99.90
8953;DHT22;4511;50.890;8.054;2023-12-14T07:43:15;6.50;99.90
8953;DHT22;4511;50.890;8.054;2023-12-14T07:45:42;6.40;99.90
8953;DHT22;4511;50.890;8.054;2023-12-14T07:48:09;6.40;99.90
8953;DHT22;4511;50.890;8.054;2023-12-14T07:50:37;6.40;99.90
8953;DHT22;4511;50.890;8.054;2023-12-14T07:53:03;6.40;99.90
8953;DHT22;4511;50.890;8.054;2023-12-14T07:55:30;6.40;99.90
8953;DHT22;4511;50.890;8.054;2023-12-14T07:57:57;6.30;99.90
8953;DHT22;4511;50.890;8.054;2023-12-14T08:00:24;6.30;99.90
8953;DHT22;4511;50.890;8.054;2023-12-14T08:02:51;6.30;99.90
8953;DHT22;4511;50.890;8.054;2023-12-14T08:05:17;6.30;99.90
8953;DHT22;4511;50.890;8.054;2023-12-14T08:07:46;6.30;99.90
8953;DHT22;4511;50.890;8.054;2023-12-14T08:10:14;6.20;99.90
8953;DHT22;4511;50.890;8.054;2023-12-14T08:12:41;6.20;99.90
8953;DHT22;4511;50.890;8.054;2023-12-14T08:15:09;6.20;99.90
8953;DHT22;4511;50.890;8.054;2023-12-14T08:17:37;6.20;99.90
8953;DHT22;4511;50.890;8.054;2023-12-14T08:20:05;6.20;99.90
8953;DHT22;4511;50.890;8.054;2023-12-14T08:22:34;6.20;99.90
8953;DHT22;4511;50.890;8.054;2023-12-14T08:25:02;6.20;99.90
8953;DHT22;4511;50.890;8.054;2023-12-14T08:27:29;6.30;99.90
8953;DHT22;4511;50.890;8.054;2023-12-14T08:29:56;6.20;99.90
8953;DHT22;4511;50.890;8.054;2023-12-14T08:32:23;6.20;99.90
8953;DHT22;4511;50.890;8.054;2023-12-14T08:34:50;6.30;99.90
8953;DHT22;4511;50.890;8.054;2023-12-14T08:37:18;6.30;99.90
8953;DHT22;4511;50.890;8.054;2023-12-14T08:39:45;6.30;99.90
8953;DHT22;4511;50.890;8.054;2023-12-14T08:42:14;6.30;99.90
8953;DHT22;4511;50.890;8.054;2023-12-14T08:44:41;6.30;99.90
8953;DHT22;4511;50.890;8.054;2023-12-14T08:47:08;6.20;99.90
8953;DHT22;4511;50.890;8.054;2023-12-14T08:49:35;6.20;99.90
8953;DHT22;4511;50.890;8.054;2023-12-14T08:52:02;6.20;99.90
8953;DHT22;4511;50.890;8.054;2023-12-14T08:54:29;6.30;99.90
8953;DHT22;4511;50.890;8.054;2023-12-14T08:56:56;6.30;99.90
8953;DHT22;4511;50.890;8.054;2023-12-14T08:59:24;6.30;99.90
8953;DHT22;4511;50.890;8.054;2023-12-14T09:01:51;6.30;99.90
8953;DHT22;4511;50.890;8.054;2023-12-14T09:04:18;6.20;99.90
8953;DHT22;4511;50.890;8.054;2023-12-14T09:06:44;6.30;99.90
8953;DHT22;4511;50.890;8.054;2023-12-14T09:09:11;6.30;99.90
8953;DHT22;4511;50.890;8.054;2023-12-14T09:11:38;6.30;99.90
8953;DHT22;4511;50.890;8.054;2023-12-14T09:14:06;6.30;99.90
8953;DHT22;4511;50.890;8.054;2023-12-14T09:16:34;6.30;99.90
8953;DHT22;4511;50.890;8.054;2023-12-14T09:19:00;6.30;99.90
8953;DHT22;4511;50.890;8.054;2023-12-14T09:21:27;6.30;99.90
8953;DHT22;4511;50.890;8.054;2023-12-14T09:23:54;6.40;99.90
8953;DHT22;4511;50.890;8.054;2023-12-14T09:26:20;6.40;99.90
8953;DHT22;4511;50.890;8.054;2023-12-14T09:28:47;6.40;99.90
8953;DHT22;4511;50.890;8.054;2023-12-14T09:31:14;6.40;99.90
8953;DHT22;4511;50.890;8.054;2023-12-14T09:33:42;6.30;99.90
8953;DHT22;4511;50.890;8.054;2023-12-14T09:36:09;6.40;99.90
8953;DHT22;4511;50.890;8.054;2023-12-14T09:38:36;6.40;99.90
8953;DHT22;4511;50.890;8.054;2023-12-14T09:41:03;6.30;99.90
8953;DHT22;4511;50.890;8.054;2023-12-14T09:43:30;6.30;99.90
8953;DHT22;4511;50.890;8.054;2023-12-14T09:45:57;6.40;99.90
8953;DHT22;4511;50.890;8.054;2023-12-14T09:48:24;6.30;99.90
8953;DHT22;4511;50.890;8.054;2023-12-14T09:50:52;6.30;99.90
8953;DHT22;4511;50.890;8.054;2023-12-14T09:53:19;6.30;99.90
8953;DHT22;4511;50.890;8.054;2023-12-14T09:55:46;6.30;99.90
8953;DHT22;4511;50.890;8.054;2023-12-14T09:58:13;6.30;99.90
8953;DHT22;4511;50.890;8.054;2023-12-14T10:00:40;6.30;99.90
8953;DHT22;4511;50.890;8.054;2023-12-14T10:03:20;6.30;99.90
8953;DHT22;4511;50.890;8.054;2023-12-14T10:05:47;6.30;99.90
8953;DHT22;4511;50.890;8.054;2023-12-14T10:08:16;6.30;99.90
8953;DHT22;4511;50.890;8.054;2023-12-14T10:10:43;6.30;99.90
8953;DHT22;4511;50.890;8.054;2023-12-14T10:13:10;6.40;99.90
8953;DHT22;4511;50.890;8.054;2023-12-14T10:15:41;6.30;99.90
8953;DHT22;4511;50.890;8.054;2023-12-14T10:18:08;6.20;99.90
8953;DHT22;4511;50.890;8.054;2023-12-14T10:20:35;6.20;99.90
8953;DHT22;4511;50.890;8.054;2023-12-14T10:23:03;6.30;99.90
8953;DHT22;4511;50.890;8.054;2023-12-14T10:25:31;6.30;99.90
8953;DHT22;4511;50.890;8.054;2023-12-14T10:27:58;6.30;99.90
8953;DHT22;4511;50.890;8.054;2023-12-14T10:30:28;6.30;99.90
8953;DHT22;4511;50.890;8.054;2023-12-14T10:32:56;6.40;99.90
8953;DHT22;4511;50.890;8.054;2023-12-14T10:35:23;6.40;99.90
8953;DHT22;4511;50.890;8.054;2023-12-14T10:37:51;6.50;99.90
8953;DHT22;4511;50.890;8.054;2023-12-14T10:40:18;6.50;99.90
8953;DHT22;4511;50.890;8.054;2023-12-14T10:42:47;6.50;99.90
8953;DHT22;4511;50.890;8.054;2023-12-14T10:45:16;6.50;99.90
8953;DHT22;4511;50.890;8.054;2023-12-14T10:47:46;6.50;99.90
8953;DHT22;4511;50.890;8.054;2023-12-14T10:50:14;6.50;99.90
8953;DHT22;4511;50.890;8.054;2023-12-14T10:52:42;6.50;99.90
8953;DHT22;4511;50.890;8.054;2023-12-14T10:55:13;6.50;99.90
8953;DHT22;4511;50.890;8.054;2023-12-14T10:57:41;6.50;99.90
8953;DHT22;4511;50.890;8.054;2023-12-14T11:00:10;6.50;99.90
8953;DHT22;4511;50.890;8.054;2023-12-14T11:02:40;6.60;99.90
8953;DHT22;4511;50.890;8.054;2023-12-14T11:05:11;6.60;99.90
8953;DHT22;4511;50.890;8.054;2023-12-14T11:07:48;6.60;99.90
8953;DHT22;4511;50.890;8.054;2023-12-14T11:10:20;6.50;99.90
8953;DHT22;4511;50.890;8.054;2023-12-14T11:12:56;6.50;99.90
8953;DHT22;4511;50.890;8.054;2023-12-14T11:15:25;6.50;99.90
8953;DHT22;4511;50.890;8.054;2023-12-14T11:18:21;6.50;99.90
8953;DHT22;4511;50.890;8.054;2023-12-14T11:20:49;6.50;99.90
8953;DHT22;4511;50.890;8.054;2023-12-14T11:23:17;6.60;99.90
8953;DHT22;4511;50.890;8.054;2023-12-14T11:25:48;6.60;99.90
8953;DHT22;4511;50.890;8.054;2023-12-14T11:28:14;6.80;99.90
8953;DHT22;4511;50.890;8.054;2023-12-14T11:30:43;6.80;99.90
8953;DHT22;4511;50.890;8.054;2023-12-14T11:33:11;6.80;99.90
8953;DHT22;4511;50.890;8.054;2023-12-14T11:35:37;6.80;99.90
8953;DHT22;4511;50.890;8.054;2023-12-14T11:38:05;6.80;99.90
8953;DHT22;4511;50.890;8.054;2023-12-14T11:40:35;6.80;99.90
8953;DHT22;4511;50.890;8.054;2023-12-14T11:43:03;6.60;99.90
8953;DHT22;4511;50.890;8.054;2023-12-14T11:45:32;6.70;99.90
8953;DHT22;4511;50.890;8.054;2023-12-14T11:48:00;6.70;99.90
8953;DHT22;4511;50.890;8.054;2023-12-14T11:50:30;6.60;99.90
8953;DHT22;4511;50.890;8.054;2023-12-14T11:52:57;6.60;99.90
8953;DHT22;4511;50.890;8.054;2023-12-14T11:55:24;6.50;99.90
8953;DHT22;4511;50.890;8.054;2023-12-14T11:57:51;6.60;99.90
8953;DHT22;4511;50.890;8.054;2023-12-14T12:00:23;6.50;99.90
8953;DHT22;4511;50.890;8.054;2023-12-14T12:02:50;6.50;99.90
8953;DHT22;4511;50.890;8.054;2023-12-14T12:05:18;6.50;99.90
8953;DHT22;4511;50.890;8.054;2023-12-14T12:07:45;6.50;99.90
8953;DHT22;4511;50.890;8.054;2023-12-14T12:10:12;6.50;99.90
8953;DHT22;4511;50.890;8.054;2023-12-14T12:12:39;6.40;99.90
8953;DHT22;4511;50.890;8.054;2023-12-14T12:15:07;6.50;99.90
8953;DHT22;4511;50.890;8.054;2023-12-14T12:17:34;6.50;99.90
8953;DHT22;4511;50.890;8.054;2023-12-14T12:20:04;6.60;99.90
8953;DHT22;4511;50.890;8.054;2023-12-14T12:22:32;6.50;99.90
8953;DHT22;4511;50.890;8.054;2023-12-14T12:24:59;6.60;99.90
8953;DHT22;4511;50.890;8.054;2023-12-14T12:27:27;6.60;99.90
8953;DHT22;4511;50.890;8.054;2023-12-14T12:29:54;6.60;99.90
8953;DHT22;4511;50.890;8.054;2023-12-14T12:32:21;6.60;99.90
8953;DHT22;4511;50.890;8.054;2023-12-14T12:34:47;6.60;99.90
8953;DHT22;4511;50.890;8.054;2023-12-14T12:37:14;6.70;99.90
8953;DHT22;4511;50.890;8.054;2023-12-14T12:39:42;6.70;99.90
8953;DHT22;4511;50.890;8.054;2023-12-14T12:42:09;6.60;99.90
8953;DHT22;4511;50.890;8.054;2023-12-14T12:44:35;6.70;99.90
8953;DHT22;4511;50.890;8.054;2023-12-14T12:47:02;6.70;99.90
8953;DHT22;4511;50.890;8.054;2023-12-14T12:49:30;6.70;99.90
8953;DHT22;4511;50.890;8.054;2023-12-14T12:51:57;6.60;99.90
8953;DHT22;4511;50.890;8.054;2023-12-14T12:54:23;6.60;99.90
8953;DHT22;4511;50.890;8.054;2023-12-14T12:56:51;6.50;99.90
8953;DHT22;4511;50.890;8.054;2023-12-14T12:59:18;6.50;99.90
8953;DHT22;4511;50.890;8.054;2023-12-14T13:01:45;6.50;99.90
8953;DHT22;4511;50.890;8.054;2023-12-14T13:04:19;6.50;99.90
8953;DHT22;4511;50.890;8.054;2023-12-14T13:06:46;6.50;99.90
8953;DHT22;4511;50.890;8.054;2023-12-14T13:09:13;6.50;99.90
8953;DHT22;4511;50.890;8.054;2023-12-14T13:11:40;6.50;99.90
8953;DHT22;4511;50.890;8.054;2023-12-14T13:14:09;6.50;99.90
8953;DHT22;4511;50.890;8.054;2023-12-14T13:16:36;6.40;99.90
8953;DHT22;4511;50.890;8.054;2023-12-14T13:19:03;6.40;99.90
8953;DHT22;4511;50.890;8.054;2023-12-14T13:21:31;6.30;99.90
8953;DHT22;4511;50.890;8.054;2023-12-14T13:23:59;6.30;99.90
8953;DHT22;4511;50.890;8.054;2023-12-14T13:26:25;6.40;99.90
8953;DHT22;4511;50.890;8.054;2023-12-14T13:28:52;6.40;99.90
8953;DHT22;4511;50.890;8.054;2023-12-14T13:31:20;6.40;99.90
8953;DHT22;4511;50.890;8.054;2023-12-14T13:33:49;6.40;99.90
8953;DHT22;4511;50.890;8.054;2023-12-14T13:36:16;6.50;99.90
8953;DHT22;4511;50.890;8.054;2023-12-14T13:38:44;6.40;99.90
8953;DHT22;4511;50.890;8.054;2023-12-14T13:41:11;6.40;99.90
8953;DHT22;4511;50.890;8.054;2023-12-14T13:43:37;6.40;99.90
8953;DHT22;4511;50.890;8.054;2023-12-14T13:46:04;6.40;99.90
8953;DHT22;4511;50.890;8.054;2023-12-14T13:48:33;6.50;99.90
8953;DHT22;4511;50.890;8.054;2023-12-14T13:50:59;6.50;99.90
8953;DHT22;4511;50.890;8.054;2023-12-14T13:53:26;6.50;99.90
8953;DHT22;4511;50.890;8.054;2023-12-14T13:55:53;6.40;99.90
8953;DHT22;4511;50.890;8.054;2023-12-14T13:58:20;6.40;99.90
8953;DHT22;4511;50.890;8.054;2023-12-14T14:00:46;6.40;99.90
8953;DHT22;4511;50.890;8.054;2023-12-14T14:03:13;6.40;99.90
8953;DHT22;4511;50.890;8.054;2023-12-14T14:05:41;6.40;99.90
8953;DHT22;4511;50.890;8.054;2023-12-14T14:08:09;6.40;99.90
8953;DHT22;4511;50.890;8.054;2023-12-14T14:10:36;6.40;99.90
8953;DHT22;4511;50.890;8.054;2023-12-14T14:13:03;6.30;99.90
8953;DHT22;4511;50.890;8.054;2023-12-14T14:15:30;6.40;99.90
8953;DHT22;4511;50.890;8.054;2023-12-14T14:17:57;6.30;99.90
8953;DHT22;4511;50.890;8.054;2023-12-14T14:20:24;6.30;99.90
8953;DHT22;4511;50.890;8.054;2023-12-14T14:22:52;6.40;99.90
8953;DHT22;4511;50.890;8.054;2023-12-14T14:25:19;6.40;99.90
8953;DHT22;4511;50.890;8.054;2023-12-14T14:27:46;6.30;99.90
8953;DHT22;4511;50.890;8.054;2023-12-14T14:30:13;6.40;99.90
8953;DHT22;4511;50.890;8.054;2023-12-14T14:32:41;6.40;99.90
8953;DHT22;4511;50.890;8.054;2023-12-14T14:35:08;6.40;99.90
8953;DHT22;4511;50.890;8.054;2023-12-14T14:37:35;6.40;99.90
8953;DHT22;4511;50.890;8.054;2023-12-14T14:40:04;6.30;99.90
8953;DHT22;4511;50.890;8.054;2023-12-14T14:42:31;6.30;99.90
8953;DHT22;4511;50.890;8.054;2023-12-14T14:44:58;6.40;99.90
8953;DHT22;4511;50.890;8.054;2023-12-14T14:47:25;6.30;99.90
8953;DHT22;4511;50.890;8.054;2023-12-14T14:49:53;6.40;99.90
8953;DHT22;4511;50.890;8.054;2023-12-14T14:52:22;6.40;99.90
8953;DHT22;4511;50.890;8.054;2023-12-14T14:54:49;6.40;99.90
8953;DHT22;4511;50.890;8.054;2023-12-14T14:57:17;6.40;99.90
8953;DHT22;4511;50.890;8.054;2023-12-14T14:59:44;6.30;99.90
8953;DHT22;4511;50.890;8.054;2023-12-14T15:02:11;6.30;99.90
8953;DHT22;4511;50.890;8.054;2023-12-14T15:04:38;6.30;1.00
8953;DHT22;4511;50.890;8.054;2023-12-14T15:07:04;6.20;99.90
8953;DHT22;4511;50.890;8.054;2023-12-14T15:09:31;6.20;99.90
8953;DHT22;4511;50.890;8.054;2023-12-14T15:11:58;6.20;99.90
8953;DHT22;4511;50.890;8.054;2023-12-14T15:14:26;6.20;99.90
8953;DHT22;4511;50.890;8.054;2023-12-14T15:16:53;6.10;99.90
8953;DHT22;4511;50.890;8.054;2023-12-14T15:19:20;6.10;99.90
8953;DHT22;4511;50.890;8.054;2023-12-14T15:21:48;6.10;99.90
8953;DHT22;4511;50.890;8.054;2023-12-14T15:24:14;6.10;99.90
8953;DHT22;4511;50.890;8.054;2023-12-14T15:26:41;6.10;99.90
8953;DHT22;4511;50.890;8.054;2023-12-14T15:29:08;6.10;99.90
8953;DHT22;4511;50.890;8.054;2023-12-14T15:31:36;6.00;99.90
8953;DHT22;4511;50.890;8.054;2023-12-14T15:34:03;6.10;1.00
8953;DHT22;4511;50.890;8.054;2023-12-14T15:36:32;6.00;99.90
8953;DHT22;4511;50.890;8.054;2023-12-14T15:38:59;6.00;1.00
8953;DHT22;4511;50.890;8.054;2023-12-14T15:41:26;6.00;1.00
8953;DHT22;4511;50.890;8.054;2023-12-14T15:43:54;6.00;1.00
8953;DHT22;4511;50.890;8.054;2023-12-14T15:46:20;6.00;99.90
8953;DHT22;4511;50.890;8.054;2023-12-14T15:48:49;6.00;1.00
8953;DHT22;4511;50.890;8.054;2023-12-14T15:51:15;6.10;1.00
8953;DHT22;4511;50.890;8.054;2023-12-14T15:53:42;5.90;99.90
8953;DHT22;4511;50.890;8.054;2023-12-14T15:56:09;5.90;1.00
8953;DHT22;4511;50.890;8.054;2023-12-14T15:58:36;5.90;1.00
8953;DHT22;4511;50.890;8.054;2023-12-14T16:01:03;6.00;1.00
8953;DHT22;4511;50.890;8.054;2023-12-14T16:03:30;5.90;1.00
8953;DHT22;4511;50.890;8.054;2023-12-14T16:06:00;5.90;99.90
8953;DHT22;4511;50.890;8.054;2023-12-14T16:08:27;5.90;1.00
8953;DHT22;4511;50.890;8.054;2023-12-14T16:10:54;5.90;1.00
8953;DHT22;4511;50.890;8.054;2023-12-14T16:13:21;5.90;99.90
8953;DHT22;4511;50.890;8.054;2023-12-14T16:15:47;5.90;1.00
8953;DHT22;4511;50.890;8.054;2023-12-14T16:18:14;6.00;79.70
8953;DHT22;4511;50.890;8.054;2023-12-14T16:20:41;6.00;1.00